createdAt,value
2018-12-30T00:00:24.088Z,1000.12
2018-12-30T00:01:24.006Z,1000.16
2018-12-30T00:02:23.922Z,1000.15
2018-12-30T00:03:23.837Z,1000.13
2018-12-30T00:04:23.752Z,1000.08
2018-12-30T00:05:23.670Z,1000.03
2018-12-30T00:06:23.585Z,999.99
2018-12-30T00:07:23.501Z,999.99
2018-12-30T00:08:23.418Z,1000.01
2018-12-30T00:09:23.335Z,999.99
2018-12-30T00:10:23.253Z,999.97
2018-12-30T00:11:23.176Z,999.94
2018-12-30T00:12:23.083Z,999.91
2018-12-30T00:13:22.999Z,999.96
2018-12-30T00:14:22.919Z,1000.15
2018-12-30T00:15:22.831Z,999.97
2018-12-30T00:16:22.748Z,999.96
2018-12-30T00:17:22.667Z,999.87
2018-12-30T00:18:22.580Z,999.87
2018-12-30T00:19:22.497Z,1000.00
2018-12-30T00:20:22.412Z,999.88
2018-12-30T00:21:22.329Z,999.84
2018-12-30T00:22:22.245Z,999.85
2018-12-30T00:23:22.161Z,999.78
2018-12-30T00:24:22.078Z,999.86
2018-12-30T00:25:21.995Z,999.93
2018-12-30T00:26:21.909Z,999.81
2018-12-30T00:27:21.827Z,999.94
2018-12-30T00:28:21.742Z,999.86
2018-12-30T00:29:21.659Z,999.88
2018-12-30T00:30:21.574Z,999.79
2018-12-30T00:31:21.490Z,999.79
2018-12-30T00:32:21.408Z,999.69
2018-12-30T00:33:21.325Z,999.86
2018-12-30T00:34:21.240Z,999.81
2018-12-30T00:35:21.155Z,999.91
2018-12-30T00:36:21.072Z,999.87
2018-12-30T00:37:20.990Z,999.94
2018-12-30T00:38:20.905Z,999.95
2018-12-30T00:39:20.822Z,999.92
2018-12-30T00:40:20.739Z,999.95
2018-12-30T00:41:20.659Z,999.93
2018-12-30T00:42:20.571Z,999.93
2018-12-30T00:43:20.488Z,999.86
2018-12-30T00:44:20.404Z,999.92
2018-12-30T00:45:20.323Z,999.94
2018-12-30T00:46:20.236Z,999.96
2018-12-30T00:47:20.152Z,1000.11
2018-12-30T00:48:20.218Z,1000.10
2018-12-30T00:49:19.986Z,1000.08
2018-12-30T00:50:19.901Z,1000.16
2018-12-30T00:51:19.819Z,1000.13
2018-12-30T00:52:19.735Z,1000.06
2018-12-30T00:53:19.901Z,1000.08
2018-12-30T00:54:19.567Z,1000.10
2018-12-30T00:55:19.483Z,1000.03
2018-12-30T00:56:19.401Z,1000.13
2018-12-30T00:57:19.316Z,999.99
2018-12-30T00:58:19.233Z,1000.06
2018-12-30T00:59:19.149Z,1000.09
2018-12-30T01:00:19.067Z,1000.08
2018-12-30T01:01:18.984Z,1000.20
2018-12-30T01:02:18.899Z,1000.14
2018-12-30T01:03:18.814Z,1000.08
2018-12-30T01:04:18.731Z,1000.15
2018-12-30T01:05:18.649Z,1000.13
2018-12-30T01:06:18.565Z,1000.29
2018-12-30T01:07:18.481Z,1000.30
2018-12-30T01:08:18.448Z,1000.49
2018-12-30T01:09:18.317Z,1000.43
2018-12-30T01:10:18.231Z,1000.44
2018-12-30T01:11:18.149Z,1000.40
2018-12-30T01:12:18.065Z,1000.43
2018-12-30T01:13:17.981Z,1000.45
2018-12-30T01:14:17.897Z,1000.41
2018-12-30T01:15:17.814Z,1000.41
2018-12-30T01:16:17.734Z,1000.43
2018-12-30T01:17:17.648Z,1000.50
2018-12-30T01:18:17.564Z,1000.52
2018-12-30T01:19:17.482Z,1000.45
2018-12-30T01:20:17.398Z,1000.47
2018-12-30T01:21:24.817Z,1000.47
2018-12-30T01:22:17.230Z,1000.53
2018-12-30T01:23:17.147Z,1000.51
2018-12-30T01:24:17.067Z,1000.50
2018-12-30T01:25:16.982Z,1000.50
2018-12-30T01:26:16.902Z,1000.49
2018-12-30T01:27:16.815Z,1000.50
2018-12-30T01:28:16.733Z,1000.51
2018-12-30T01:29:16.649Z,1000.48
2018-12-30T01:30:16.566Z,1000.46
2018-12-30T01:31:16.482Z,1000.38
2018-12-30T01:32:16.399Z,1000.34
2018-12-30T01:33:16.317Z,1000.32
2018-12-30T01:34:16.235Z,1000.37
2018-12-30T01:35:16.149Z,1000.45
2018-12-30T01:36:16.066Z,1000.38
2018-12-30T01:37:15.984Z,1000.50
2018-12-30T01:38:15.901Z,1000.43
2018-12-30T01:39:15.817Z,1000.56
2018-12-30T01:40:15.786Z,1000.56
2018-12-30T01:41:15.652Z,1000.45
2018-12-30T01:42:15.568Z,1000.36
2018-12-30T01:43:15.557Z,1000.52
2018-12-30T01:44:15.403Z,1000.59
2018-12-30T01:45:15.319Z,1000.59
2018-12-30T01:46:15.285Z,1000.64
2018-12-30T01:47:15.154Z,1000.65
2018-12-30T01:48:15.070Z,1000.60
2018-12-30T01:49:14.987Z,1000.59
2018-12-30T01:50:14.905Z,1000.65
2018-12-30T01:51:14.821Z,1000.64
2018-12-30T01:52:14.737Z,1000.67
2018-12-30T01:53:14.654Z,1000.64
2018-12-30T01:54:14.571Z,1000.63
2018-12-30T01:55:14.488Z,1000.65
2018-12-30T01:56:14.406Z,1000.69
2018-12-30T01:57:14.323Z,1000.65
2018-12-30T01:58:14.242Z,1000.72
2018-12-30T01:59:14.157Z,1000.69
2018-12-30T02:00:14.074Z,1000.77
2018-12-30T02:01:13.993Z,1000.77
2018-12-30T02:02:13.907Z,1000.70
2018-12-30T02:03:13.824Z,1000.73
2018-12-30T02:04:13.742Z,1000.74
2018-12-30T02:05:13.662Z,1000.72
2018-12-30T02:06:13.575Z,1000.79
2018-12-30T02:07:13.492Z,1000.80
2018-12-30T02:08:13.460Z,1000.74
2018-12-30T02:09:13.333Z,1000.86
2018-12-30T02:10:13.245Z,1000.81
2018-12-30T02:11:13.163Z,1000.87
2018-12-30T02:12:13.079Z,1000.90
2018-12-30T02:13:12.997Z,1000.90
2018-12-30T02:14:12.912Z,1000.94
2018-12-30T02:15:12.829Z,1000.89
2018-12-30T02:16:12.748Z,1000.93
2018-12-30T02:17:12.665Z,1000.96
2018-12-30T02:18:12.584Z,1001.01
2018-12-30T02:19:12.500Z,1000.97
2018-12-30T02:20:12.417Z,1000.99
2018-12-30T02:21:12.333Z,1001.05
2018-12-30T02:22:12.252Z,1000.99
2018-12-30T02:23:12.168Z,1001.01
2018-12-30T02:24:12.087Z,1001.04
2018-12-30T02:25:12.005Z,1001.01
2018-12-30T02:26:11.923Z,1001.01
2018-12-30T02:27:11.839Z,1001.04
2018-12-30T02:28:11.757Z,1001.06
2018-12-30T02:29:11.675Z,1001.07
2018-12-30T02:30:11.591Z,1001.00
2018-12-30T02:31:11.510Z,1000.99
2018-12-30T02:32:11.426Z,1001.08
2018-12-30T02:33:11.346Z,1000.98
2018-12-30T02:34:11.264Z,1001.10
2018-12-30T02:35:11.180Z,1001.08
2018-12-30T02:36:11.099Z,1001.06
2018-12-30T02:37:11.016Z,1001.03
2018-12-30T02:38:10.933Z,1001.07
2018-12-30T02:39:10.852Z,1000.93
2018-12-30T02:40:10.769Z,1000.97
2018-12-30T02:41:10.687Z,1001.06
2018-12-30T02:42:10.606Z,1001.08
2018-12-30T02:43:10.531Z,1001.09
2018-12-30T02:44:10.440Z,1001.06
2018-12-30T02:45:10.358Z,1001.03
2018-12-30T02:46:10.278Z,1001.12
2018-12-30T02:47:10.242Z,1001.06
2018-12-30T02:48:10.113Z,1001.15
2018-12-30T02:49:10.035Z,1001.19
2018-12-30T02:50:09.950Z,1001.20
2018-12-30T02:51:09.865Z,1001.25
2018-12-30T02:52:09.784Z,1001.11
2018-12-30T02:53:09.700Z,1001.16
2018-12-30T02:54:09.620Z,1001.23
2018-12-30T02:55:09.538Z,1001.24
2018-12-30T02:56:09.454Z,1001.22
2018-12-30T02:57:09.372Z,1001.22
2018-12-30T02:58:09.340Z,1001.18
2018-12-30T02:59:09.207Z,1001.20
2018-12-30T03:00:09.125Z,1001.21
2018-12-30T03:01:09.044Z,1001.20
2018-12-30T03:02:08.961Z,1001.33
2018-12-30T03:03:09.132Z,1001.20
2018-12-30T03:04:08.797Z,1001.22
2018-12-30T03:05:08.714Z,1001.21
2018-12-30T03:06:08.634Z,1001.24
2018-12-30T03:07:08.550Z,1001.21
2018-12-30T03:08:08.469Z,1001.19
2018-12-30T03:09:08.636Z,1001.18
2018-12-30T03:10:08.304Z,1001.27
2018-12-30T03:11:08.222Z,1001.28
2018-12-30T03:12:08.139Z,1001.31
2018-12-30T03:13:08.057Z,1001.25
2018-12-30T03:14:07.977Z,1001.33
2018-12-30T03:15:07.893Z,1001.32
2018-12-30T03:16:07.811Z,1001.28
2018-12-30T03:17:07.729Z,1001.22
2018-12-30T03:18:07.655Z,1001.25
2018-12-30T03:19:07.565Z,1001.32
2018-12-30T03:20:07.633Z,1001.29
2018-12-30T03:21:07.402Z,1001.33
2018-12-30T03:22:07.317Z,1001.30
2018-12-30T03:23:07.236Z,1001.31
2018-12-30T03:24:07.154Z,1001.26
2018-12-30T03:25:07.076Z,1001.22
2018-12-30T03:26:06.989Z,1001.27
2018-12-30T03:27:06.908Z,1001.22
2018-12-30T03:28:07.218Z,1001.29
2018-12-30T03:29:06.745Z,1001.27
2018-12-30T03:30:06.663Z,1001.24
2018-12-30T03:31:06.581Z,1001.24
2018-12-30T03:32:06.499Z,1001.22
2018-12-30T03:33:06.417Z,1001.22
2018-12-30T03:34:06.334Z,1001.22
2018-12-30T03:35:06.252Z,1001.22
2018-12-30T03:36:06.170Z,1001.27
2018-12-30T03:37:06.338Z,1001.36
2018-12-30T03:38:06.006Z,1001.31
2018-12-30T03:39:05.923Z,1001.29
2018-12-30T03:40:05.841Z,1001.25
2018-12-30T03:41:05.762Z,1001.24
2018-12-30T03:42:05.678Z,1001.35
2018-12-30T03:43:05.596Z,1001.25
2018-12-30T03:44:05.515Z,1001.35
2018-12-30T03:45:05.433Z,1001.34
2018-12-30T03:46:05.351Z,1001.36
2018-12-30T03:47:05.268Z,1001.41
2018-12-30T03:48:05.234Z,1001.38
2018-12-30T03:49:05.104Z,1001.40
2018-12-30T03:50:05.022Z,1001.44
2018-12-30T03:51:04.939Z,1001.45
2018-12-30T03:52:08.563Z,1001.37
2018-12-30T03:53:04.777Z,1001.43
2018-12-30T03:54:04.692Z,1001.46
2018-12-30T03:55:04.614Z,1001.51
2018-12-30T03:56:04.529Z,1001.50
2018-12-30T03:57:04.447Z,1001.53
2018-12-30T03:58:04.363Z,1001.48
2018-12-30T03:59:04.280Z,1001.51
2018-12-30T04:00:04.200Z,1001.51
2018-12-30T04:01:04.163Z,1001.58
2018-12-30T04:02:04.035Z,1001.57
2018-12-30T04:03:03.957Z,1001.55
2018-12-30T04:04:03.870Z,1001.53
2018-12-30T04:05:03.788Z,1001.56
2018-12-30T04:06:03.706Z,1001.53
2018-12-30T04:07:03.624Z,1001.54
2018-12-30T04:08:03.539Z,1001.57
2018-12-30T04:09:03.558Z,1001.58
2018-12-30T04:10:03.377Z,1001.57
2018-12-30T04:11:03.293Z,1001.54
2018-12-30T04:12:03.279Z,1001.55
2018-12-30T04:13:03.132Z,1001.53
2018-12-30T04:14:03.046Z,1001.58
2018-12-30T04:15:02.965Z,1001.55
2018-12-30T04:16:02.884Z,1001.58
2018-12-30T04:17:02.803Z,1001.51
2018-12-30T04:18:02.721Z,1001.60
2018-12-30T04:19:02.635Z,1001.59
2018-12-30T04:20:02.554Z,1001.60
2018-12-30T04:21:02.572Z,1001.57
2018-12-30T04:22:02.390Z,1001.61
2018-12-30T04:23:02.308Z,1001.63
2018-12-30T04:24:02.226Z,1001.64
2018-12-30T04:25:02.144Z,1001.64
2018-12-30T04:26:02.162Z,1001.58
2018-12-30T04:27:01.983Z,1001.58
2018-12-30T04:28:01.897Z,1001.57
2018-12-30T04:29:01.819Z,1001.61
2018-12-30T04:30:01.735Z,1001.62
2018-12-30T04:31:01.653Z,1001.62
2018-12-30T04:32:01.572Z,1001.61
2018-12-30T04:33:01.490Z,1001.61
2018-12-30T04:34:01.412Z,1001.52
2018-12-30T04:35:01.325Z,1001.61
2018-12-30T04:36:01.499Z,1001.59
2018-12-30T04:37:01.161Z,1001.53
2018-12-30T04:38:01.079Z,1001.69
2018-12-30T04:39:00.996Z,1001.65
2018-12-30T04:40:00.916Z,1001.76
2018-12-30T04:41:00.833Z,1001.71
2018-12-30T04:42:00.753Z,1001.77
2018-12-30T04:43:00.671Z,1001.78
2018-12-30T04:44:00.593Z,1001.74
2018-12-30T04:45:00.506Z,1001.73
2018-12-30T04:46:00.425Z,1001.65
2018-12-30T04:47:00.593Z,1001.66
2018-12-30T04:48:00.283Z,1001.72
2018-12-30T04:49:00.180Z,1001.78
2018-12-30T04:50:00.178Z,1001.74
2018-12-30T04:51:00.017Z,1001.78
2018-12-30T04:51:59.939Z,1001.86
2018-12-30T04:52:59.858Z,1001.86
2018-12-30T04:53:59.771Z,1001.86
2018-12-30T04:54:59.688Z,1001.91
2018-12-30T04:55:59.610Z,1001.90
2018-12-30T04:56:59.525Z,1001.96
2018-12-30T04:57:59.606Z,1001.99
2018-12-30T04:58:59.365Z,1002.07
2018-12-30T04:59:59.280Z,1002.06
2018-12-30T05:00:59.200Z,1001.97
2018-12-30T05:01:59.116Z,1002.05
2018-12-30T05:02:59.037Z,1002.10
2018-12-30T05:03:58.953Z,1002.16
2018-12-30T05:04:58.872Z,1002.19
2018-12-30T05:05:58.790Z,1002.19
2018-12-30T05:06:58.709Z,1002.15
2018-12-30T05:07:58.726Z,1002.14
2018-12-30T05:08:58.545Z,1002.16
2018-12-30T05:09:58.462Z,1002.18
2018-12-30T05:10:58.382Z,1002.17
2018-12-30T05:11:58.302Z,1002.18
2018-12-30T05:12:58.218Z,1002.19
2018-12-30T05:13:58.135Z,1002.18
2018-12-30T05:14:58.054Z,1002.14
2018-12-30T05:15:57.976Z,1002.15
2018-12-30T05:16:57.891Z,1002.19
2018-12-30T05:17:57.808Z,1002.23
2018-12-30T05:18:57.726Z,1002.27
2018-12-30T05:19:57.648Z,1002.31
2018-12-30T05:20:57.563Z,1002.33
2018-12-30T05:21:57.481Z,1002.39
2018-12-30T05:22:57.398Z,1002.40
2018-12-30T05:23:57.318Z,1002.37
2018-12-30T05:24:57.237Z,1002.40
2018-12-30T05:25:57.154Z,1002.33
2018-12-30T05:26:57.071Z,1002.34
2018-12-30T05:27:56.992Z,1002.33
2018-12-30T05:28:56.909Z,1002.36
2018-12-30T05:29:56.827Z,1002.33
2018-12-30T05:30:56.747Z,1002.42
2018-12-30T05:31:56.667Z,1002.43
2018-12-30T05:32:56.584Z,1002.41
2018-12-30T05:33:56.502Z,1002.41
2018-12-30T05:34:56.421Z,1002.44
2018-12-30T05:35:56.341Z,1002.48
2018-12-30T05:36:56.260Z,1002.49
2018-12-30T05:37:56.179Z,1002.51
2018-12-30T05:38:56.194Z,1002.56
2018-12-30T05:39:56.012Z,1002.58
2018-12-30T05:40:55.933Z,1002.58
2018-12-30T05:41:55.850Z,1002.61
2018-12-30T05:42:55.769Z,1002.69
2018-12-30T05:43:55.936Z,1002.69
2018-12-30T05:44:55.607Z,1002.70
2018-12-30T05:45:55.524Z,1002.74
2018-12-30T05:46:55.441Z,1002.76
2018-12-30T05:47:55.361Z,1002.78
2018-12-30T05:48:55.281Z,1002.76
2018-12-30T05:49:55.197Z,1002.78
2018-12-30T05:50:55.114Z,1002.79
2018-12-30T05:51:55.035Z,1002.80
2018-12-30T05:52:54.953Z,1002.79
2018-12-30T05:53:54.870Z,1002.81
2018-12-30T05:54:54.789Z,1002.78
2018-12-30T05:55:54.709Z,1002.82
2018-12-30T05:56:54.626Z,1002.78
2018-12-30T05:57:54.544Z,1002.82
2018-12-30T05:58:54.462Z,1002.77
2018-12-30T05:59:54.381Z,1002.77
2018-12-30T06:00:54.301Z,1002.77
2018-12-30T06:01:54.217Z,1002.80
2018-12-30T06:02:54.137Z,1002.82
2018-12-30T06:03:54.055Z,1002.85
2018-12-30T06:04:53.974Z,1002.81
2018-12-30T06:05:53.892Z,1002.83
2018-12-30T06:06:53.810Z,1002.86
2018-12-30T06:07:53.727Z,1002.83
2018-12-30T06:08:53.647Z,1002.90
2018-12-30T06:09:53.565Z,1002.96
2018-12-30T06:10:53.565Z,1003.00
2018-12-30T06:11:53.401Z,1003.04
2018-12-30T06:12:53.322Z,1003.01
2018-12-30T06:13:53.238Z,1003.09
2018-12-30T06:14:53.163Z,1003.12
2018-12-30T06:15:53.076Z,1003.07
2018-12-30T06:16:52.994Z,1003.11
2018-12-30T06:17:52.911Z,1003.17
2018-12-30T06:18:52.830Z,1003.06
2018-12-30T06:19:52.749Z,1003.08
2018-12-30T06:20:52.666Z,1003.18
2018-12-30T06:21:52.585Z,1003.14
2018-12-30T06:22:52.503Z,1003.17
2018-12-30T06:23:52.423Z,1003.17
2018-12-30T06:24:52.341Z,1003.25
2018-12-30T06:25:52.259Z,1003.27
2018-12-30T06:26:52.177Z,1003.29
2018-12-30T06:27:52.095Z,1003.32
2018-12-30T06:28:52.015Z,1003.36
2018-12-30T06:29:51.932Z,1003.40
2018-12-30T06:30:51.851Z,1003.42
2018-12-30T06:31:51.769Z,1003.48
2018-12-30T06:32:51.691Z,1003.46
2018-12-30T06:33:51.608Z,1003.51
2018-12-30T06:34:51.532Z,1003.54
2018-12-30T06:35:51.445Z,1003.54
2018-12-30T06:36:51.365Z,1003.44
2018-12-30T06:37:51.281Z,1003.56
2018-12-30T06:38:51.200Z,1003.62
2018-12-30T06:39:51.119Z,1003.64
2018-12-30T06:40:51.038Z,1003.68
2018-12-30T06:41:50.956Z,1003.77
2018-12-30T06:42:50.873Z,1003.75
2018-12-30T06:43:50.792Z,1003.80
2018-12-30T06:44:50.714Z,1003.82
2018-12-30T06:45:50.680Z,1003.86
2018-12-30T06:46:50.548Z,1003.89
2018-12-30T06:47:50.467Z,1003.90
2018-12-30T06:48:50.386Z,1003.93
2018-12-30T06:49:50.304Z,1003.92
2018-12-30T06:50:50.223Z,1003.98
2018-12-30T06:51:50.141Z,1004.04
2018-12-30T06:52:57.365Z,1004.04
2018-12-30T06:53:49.980Z,1004.02
2018-12-30T06:54:49.901Z,1004.07
2018-12-30T06:55:49.817Z,1004.07
2018-12-30T06:56:49.735Z,1004.06
2018-12-30T06:57:49.654Z,1004.13
2018-12-30T06:58:49.573Z,1004.14
2018-12-30T06:59:49.491Z,1004.16
2018-12-30T07:00:49.411Z,1004.20
2018-12-30T07:01:49.331Z,1004.21
2018-12-30T07:02:49.247Z,1004.19
2018-12-30T07:03:49.170Z,1004.19
2018-12-30T07:04:49.086Z,1004.20
2018-12-30T07:05:49.004Z,1004.20
2018-12-30T07:06:48.924Z,1004.22
2018-12-30T07:07:48.843Z,1004.24
2018-12-30T07:08:48.762Z,1004.29
2018-12-30T07:09:48.679Z,1004.30
2018-12-30T07:10:48.599Z,1004.23
2018-12-30T07:11:48.519Z,1004.25
2018-12-30T07:12:48.437Z,1004.20
2018-12-30T07:13:48.356Z,1004.20
2018-12-30T07:14:48.276Z,1004.19
2018-12-30T07:15:48.198Z,1004.21
2018-12-30T07:16:48.112Z,1004.22
2018-12-30T07:17:48.032Z,1004.16
2018-12-30T07:18:47.951Z,1004.13
2018-12-30T07:19:47.870Z,1004.14
2018-12-30T07:20:47.791Z,1004.18
2018-12-30T07:21:47.708Z,1004.17
2018-12-30T07:22:47.628Z,1004.19
2018-12-30T07:23:47.546Z,1004.20
2018-12-30T07:24:47.466Z,1004.21
2018-12-30T07:25:47.383Z,1004.20
2018-12-30T07:26:47.304Z,1004.21
2018-12-30T07:27:47.224Z,1004.16
2018-12-30T07:28:47.193Z,1004.25
2018-12-30T07:29:47.060Z,1004.21
2018-12-30T07:30:46.980Z,1004.18
2018-12-30T07:31:46.898Z,1004.21
2018-12-30T07:32:46.818Z,1004.22
2018-12-30T07:33:46.740Z,1004.23
2018-12-30T07:34:46.655Z,1004.22
2018-12-30T07:35:46.580Z,1004.20
2018-12-30T07:36:46.496Z,1004.23
2018-12-30T07:37:46.413Z,1004.19
2018-12-30T07:38:46.383Z,1004.22
2018-12-30T07:39:46.253Z,1004.19
2018-12-30T07:40:46.173Z,1004.19
2018-12-30T07:41:46.091Z,1004.22
2018-12-30T07:42:46.011Z,1004.18
2018-12-30T07:43:45.930Z,1004.23
2018-12-30T07:44:45.849Z,1004.23
2018-12-30T07:45:45.771Z,1004.25
2018-12-30T07:46:45.688Z,1004.27
2018-12-30T07:47:45.607Z,1004.26
2018-12-30T07:48:45.527Z,1004.26
2018-12-30T07:49:45.446Z,1004.28
2018-12-30T07:50:45.365Z,1004.27
2018-12-30T07:51:45.284Z,1004.28
2018-12-30T07:52:45.204Z,1004.26
2018-12-30T07:53:45.121Z,1004.27
2018-12-30T07:54:45.041Z,1004.28
2018-12-30T07:55:44.963Z,1004.34
2018-12-30T07:56:44.880Z,1004.34
2018-12-30T07:57:44.799Z,1004.38
2018-12-30T07:58:44.720Z,1004.41
2018-12-30T07:59:44.639Z,1004.46
2018-12-30T08:00:44.558Z,1004.52
2018-12-30T08:01:44.480Z,1004.57
2018-12-30T08:02:44.397Z,1004.59
2018-12-30T08:03:44.316Z,1004.61
2018-12-30T08:04:44.235Z,1004.65
2018-12-30T08:05:44.156Z,1004.67
2018-12-30T08:06:44.074Z,1004.74
2018-12-30T08:07:43.994Z,1004.75
2018-12-30T08:08:43.916Z,1004.75
2018-12-30T08:09:43.833Z,1004.83
2018-12-30T08:10:43.758Z,1004.90
2018-12-30T08:11:43.672Z,1004.91
2018-12-30T08:12:43.592Z,1004.89
2018-12-30T08:13:43.510Z,1004.96
2018-12-30T08:14:43.429Z,1004.90
2018-12-30T08:15:43.350Z,1004.89
2018-12-30T08:16:43.270Z,1004.90
2018-12-30T08:17:43.190Z,1004.91
2018-12-30T08:18:43.107Z,1004.97
2018-12-30T08:19:43.127Z,1005.01
2018-12-30T08:20:42.945Z,1005.05
2018-12-30T08:21:42.864Z,1005.07
2018-12-30T08:22:42.785Z,1005.06
2018-12-30T08:23:42.704Z,1005.09
2018-12-30T08:24:42.624Z,1005.12
2018-12-30T08:25:42.543Z,1005.06
2018-12-30T08:26:42.462Z,1005.09
2018-12-30T08:27:42.381Z,1005.06
2018-12-30T08:28:42.607Z,1005.11
2018-12-30T08:29:42.219Z,1005.10
2018-12-30T08:30:42.139Z,1005.09
2018-12-30T08:31:42.061Z,1005.06
2018-12-30T08:32:41.977Z,1005.06
2018-12-30T08:33:41.896Z,1005.06
2018-12-30T08:34:41.866Z,1005.10
2018-12-30T08:35:41.733Z,1005.11
2018-12-30T08:36:41.654Z,1005.03
2018-12-30T08:37:41.573Z,1005.00
2018-12-30T08:38:41.495Z,1005.07
2018-12-30T08:39:41.412Z,1005.05
2018-12-30T08:40:41.330Z,1004.99
2018-12-30T08:41:41.249Z,1005.03
2018-12-30T08:42:41.169Z,1005.03
2018-12-30T08:43:41.087Z,1005.06
2018-12-30T08:44:41.010Z,1005.04
2018-12-30T08:45:40.928Z,1005.07
2018-12-30T08:46:40.844Z,1005.08
2018-12-30T08:47:40.764Z,1005.09
2018-12-30T08:48:40.683Z,1005.02
2018-12-30T08:49:40.601Z,1005.02
2018-12-30T08:50:40.521Z,1005.07
2018-12-30T08:51:40.440Z,1005.13
2018-12-30T08:52:40.359Z,1005.17
2018-12-30T08:53:40.292Z,1005.15
2018-12-30T08:54:40.198Z,1005.22
2018-12-30T08:55:40.118Z,1005.23
2018-12-30T08:56:40.037Z,1005.29
2018-12-30T08:57:39.955Z,1005.34
2018-12-30T08:58:39.875Z,1005.36
2018-12-30T08:59:39.795Z,1005.34
2018-12-30T09:00:39.713Z,1005.34
2018-12-30T09:01:39.632Z,1005.35
2018-12-30T09:02:39.551Z,1005.36
2018-12-30T09:03:39.473Z,1005.40
2018-12-30T09:04:39.393Z,1005.37
2018-12-30T09:05:39.311Z,1005.36
2018-12-30T09:06:39.231Z,1005.38
2018-12-30T09:07:39.150Z,1005.34
2018-12-30T09:08:39.069Z,1005.35
2018-12-30T09:09:38.988Z,1005.32
2018-12-30T09:10:38.907Z,1005.38
2018-12-30T09:11:38.827Z,1005.38
2018-12-30T09:12:38.749Z,1005.44
2018-12-30T09:13:38.666Z,1005.44
2018-12-30T09:14:38.586Z,1005.47
2018-12-30T09:15:38.505Z,1005.46
2018-12-30T09:16:38.426Z,1005.48
2018-12-30T09:17:38.343Z,1005.47
2018-12-30T09:18:38.264Z,1005.42
2018-12-30T09:19:38.185Z,1005.50
2018-12-30T09:20:38.103Z,1005.49
2018-12-30T09:21:38.023Z,1005.53
2018-12-30T09:22:37.947Z,1005.58
2018-12-30T09:23:37.881Z,1005.54
2018-12-30T09:24:37.783Z,1005.60
2018-12-30T09:25:37.700Z,1005.62
2018-12-30T09:26:37.619Z,1005.62
2018-12-30T09:27:37.540Z,1005.68
2018-12-30T09:28:37.458Z,1005.66
2018-12-30T09:29:37.377Z,1005.70
2018-12-30T09:30:37.300Z,1005.72
2018-12-30T09:31:37.217Z,1005.72
2018-12-30T09:32:37.139Z,1005.73
2018-12-30T09:33:37.053Z,1005.72
2018-12-30T09:34:36.974Z,1005.69
2018-12-30T09:35:36.892Z,1005.69
2018-12-30T09:36:36.813Z,1005.66
2018-12-30T09:37:36.731Z,1005.67
2018-12-30T09:38:36.649Z,1005.71
2018-12-30T09:39:36.575Z,1005.68
2018-12-30T09:40:36.488Z,1005.69
2018-12-30T09:41:36.408Z,1005.71
2018-12-30T09:42:36.332Z,1005.76
2018-12-30T09:43:36.250Z,1005.78
2018-12-30T09:44:36.167Z,1005.79
2018-12-30T09:45:36.085Z,1005.77
2018-12-30T09:46:36.004Z,1005.74
2018-12-30T09:47:35.924Z,1005.71
2018-12-30T09:48:35.844Z,1005.69
2018-12-30T09:49:35.761Z,1005.80
2018-12-30T09:50:35.683Z,1005.72
2018-12-30T09:51:35.601Z,1005.78
2018-12-30T09:52:35.521Z,1005.76
2018-12-30T09:53:35.439Z,1005.82
2018-12-30T09:54:35.359Z,1005.84
2018-12-30T09:55:35.278Z,1005.82
2018-12-30T09:56:35.197Z,1005.81
2018-12-30T09:57:35.115Z,1005.84
2018-12-30T09:58:35.036Z,1005.92
2018-12-30T09:59:34.955Z,1005.92
2018-12-30T10:00:34.874Z,1005.91
2018-12-30T10:01:34.793Z,1005.88
2018-12-30T10:02:34.713Z,1005.88
2018-12-30T10:03:34.633Z,1005.93
2018-12-30T10:04:34.557Z,1005.90
2018-12-30T10:05:34.472Z,1005.85
2018-12-30T10:06:34.392Z,1005.82
2018-12-30T10:07:34.312Z,1005.80
2018-12-30T10:08:34.231Z,1005.85
2018-12-30T10:09:34.150Z,1005.83
2018-12-30T10:10:34.074Z,1005.82
2018-12-30T10:11:33.990Z,1005.84
2018-12-30T10:12:33.916Z,1005.84
2018-12-30T10:13:33.831Z,1005.81
2018-12-30T10:14:33.750Z,1005.81
2018-12-30T10:15:33.669Z,1005.81
2018-12-30T10:16:33.592Z,1005.80
2018-12-30T10:17:33.508Z,1005.79
2018-12-30T10:18:33.428Z,1005.81
2018-12-30T10:19:33.451Z,1005.82
2018-12-30T10:20:33.270Z,1005.87
2018-12-30T10:21:33.189Z,1005.90
2018-12-30T10:22:33.109Z,1005.95
2018-12-30T10:23:33.028Z,1005.93
2018-12-30T10:24:32.950Z,1005.94
2018-12-30T10:25:32.869Z,1006.00
2018-12-30T10:26:32.789Z,1005.98
2018-12-30T10:27:32.709Z,1006.03
2018-12-30T10:28:32.630Z,1006.03
2018-12-30T10:29:32.549Z,1006.03
2018-12-30T10:30:32.549Z,1006.01
2018-12-30T10:31:32.390Z,1006.04
2018-12-30T10:32:32.310Z,1006.04
2018-12-30T10:33:32.230Z,1006.05
2018-12-30T10:34:32.149Z,1006.06
2018-12-30T10:35:32.796Z,1006.05
2018-12-30T10:36:31.989Z,1006.12
2018-12-30T10:37:31.910Z,1006.14
2018-12-30T10:38:31.828Z,1006.10
2018-12-30T10:39:31.750Z,1006.11
2018-12-30T10:40:31.670Z,1006.02
2018-12-30T10:41:31.589Z,1005.99
2018-12-30T10:42:31.510Z,1005.95
2018-12-30T10:43:31.430Z,1005.93
2018-12-30T10:44:31.351Z,1005.95
2018-12-30T10:45:31.271Z,1005.89
2018-12-30T10:46:31.190Z,1006.00
2018-12-30T10:47:31.111Z,1005.98
2018-12-30T10:48:31.031Z,1005.97
2018-12-30T10:49:30.949Z,1005.93
2018-12-30T10:50:31.019Z,1005.98
2018-12-30T10:51:30.790Z,1005.92
2018-12-30T10:52:30.713Z,1005.95
2018-12-30T10:53:30.632Z,1005.90
2018-12-30T10:54:30.550Z,1005.89
2018-12-30T10:55:30.469Z,1005.86
2018-12-30T10:56:30.390Z,1005.91
2018-12-30T10:57:30.309Z,1005.94
2018-12-30T10:58:30.229Z,1005.94
2018-12-30T10:59:30.150Z,1005.92
2018-12-30T11:00:30.069Z,1005.88
2018-12-30T11:01:29.988Z,1005.93
2018-12-30T11:02:29.907Z,1005.91
2018-12-30T11:03:29.832Z,1005.88
2018-12-30T11:04:29.747Z,1005.89
2018-12-30T11:05:29.667Z,1005.86
2018-12-30T11:06:29.587Z,1005.89
2018-12-30T11:07:29.507Z,1005.90
2018-12-30T11:08:29.427Z,1005.91
2018-12-30T11:09:29.346Z,1005.92
2018-12-30T11:10:29.267Z,1005.89
2018-12-30T11:11:29.187Z,1005.95
2018-12-30T11:12:29.107Z,1005.92
2018-12-30T11:13:29.026Z,1005.90
2018-12-30T11:14:28.947Z,1005.92
2018-12-30T11:15:28.866Z,1005.98
2018-12-30T11:16:28.786Z,1006.02
2018-12-30T11:17:28.705Z,1006.00
2018-12-30T11:18:28.625Z,1006.01
2018-12-30T11:19:28.545Z,1006.03
2018-12-30T11:20:28.465Z,1006.04
2018-12-30T11:21:28.385Z,1006.03
2018-12-30T11:22:28.305Z,1006.08
2018-12-30T11:23:28.226Z,1006.05
2018-12-30T11:24:28.145Z,1006.07
2018-12-30T11:25:28.064Z,1006.09
2018-12-30T11:26:27.985Z,1006.03
2018-12-30T11:27:27.905Z,1006.02
2018-12-30T11:28:27.826Z,1006.04
2018-12-30T11:29:27.744Z,1006.02
2018-12-30T11:30:27.663Z,1006.00
2018-12-30T11:31:27.585Z,1005.99
2018-12-30T11:32:27.503Z,1006.04
2018-12-30T11:33:27.423Z,1005.96
2018-12-30T11:34:27.345Z,1005.99
2018-12-30T11:35:27.264Z,1005.99
2018-12-30T11:36:27.185Z,1006.04
2018-12-30T11:37:27.104Z,1006.03
2018-12-30T11:38:27.026Z,1006.01
2018-12-30T11:39:26.942Z,1006.00
2018-12-30T11:40:26.865Z,1006.00
2018-12-30T11:41:26.782Z,1005.95
2018-12-30T11:42:26.702Z,1005.96
2018-12-30T11:43:26.621Z,1005.98
2018-12-30T11:44:26.543Z,1005.94
2018-12-30T11:45:26.461Z,1005.94
2018-12-30T11:46:26.382Z,1005.91
2018-12-30T11:47:26.302Z,1005.92
2018-12-30T11:48:26.271Z,1005.96
2018-12-30T11:49:26.141Z,1005.96
2018-12-30T11:50:26.061Z,1005.98
2018-12-30T11:51:25.982Z,1005.92
2018-12-30T11:52:25.901Z,1005.88
2018-12-30T11:53:26.843Z,1005.90
2018-12-30T11:54:25.741Z,1005.87
2018-12-30T11:55:25.662Z,1005.83
2018-12-30T11:56:25.582Z,1005.82
2018-12-30T11:57:25.502Z,1005.81
2018-12-30T11:58:25.673Z,1005.76
2018-12-30T11:59:25.357Z,1005.76
2018-12-30T12:00:25.263Z,1005.72
2018-12-30T12:01:25.182Z,1005.73
2018-12-30T12:02:25.103Z,1005.66
2018-12-30T12:03:25.023Z,1005.71
2018-12-30T12:04:24.946Z,1005.71
2018-12-30T12:05:24.863Z,1005.74